Aérodrome :
LOGIN :

S'inscrire | Disclaimer

   EN    FR    IT 

 










Légende :    VFR   VFR Marginal   IFR   IFR Intensif   IFR Très Intensif
Visi : 
Plafond : 
>= 8 km
>= 3000ft
5 à 8 km
1000 à 3000 ft
1500m à 5 km
500 à 1000 ft
800 à 1500m
200 à 500 ft
< 800m
< 200 ft
Symboles :   Orages  Brouillard  Fortes neiges  Fortes précipitations  Vent > 20 kt
SIGMETs :   Divers  Orages  Givrage  Turbulence  Onde Orograph.  Cendres Volcan.







- Altitude de l'aérodrome : 291 ft
- Code IATA : ORY
- Voir les cartes d'approche


LFPO - Paris-Orly

DERNIER METAR :
  • 162300Z 19004KT CAVOK 18/15 Q1018 NOSIG

METARs EXPIRÉS :
  • 162230Z 19004KT CAVOK 18/15 Q1019 NOSIG
  • 162200Z 21004KT CAVOK 19/15 Q1019 NOSIG
  • 162130Z 23004KT CAVOK 19/16 Q1019 NOSIG
  • 162100Z 22006KT CAVOK 20/16 Q1019 NOSIG
  • 162030Z 20006KT CAVOK 20/17 Q1019 NOSIG

TAF TAF LFPO
Valide du 16 à 18h jusqu'au 18 à 00h UTC


161700Z 1618/1724 18005KT 9999 FEW040
PROB30
TEMPO 1618/1619 FEW040TCU
PROB30
TEMPO 1711/1714 BKN014
PROB40
TEMPO 1714/1720 BKN014 SCT025TCU
PROB30
TEMPO 1715/1718 23015G25KT 3000 TSRA SCT025CB
PROB30
TEMPO 1723/1724 BKN014
ATIS : +33 1 49 75 65 80
Pas de NOTAMs connus pour ce terrain.



MET'MAP, la Météo Aéronautique d'un coup d'oeil ! - Copyright ORBIFLY Décembre 2007 - Disclaimer

ORBIFLY MET'MAP TEAM :

Programmation & Développement : Alexandra Zaïnal
Conception & Développement : Baudouin d'Aumeries
Co-Programmation & Développement : Marc-Olivier Méhu
Soutien technique & logistique : Manuel Goepfert

Contact : metmap@orbifly.com




SOURCES & CREDITS :

   NOAA